createdAt,value
2022-11-30T00:00:28.759Z,965.32
2022-11-30T00:00:46.437Z,965.32
2022-11-30T00:01:17.471Z,965.12
2022-11-30T00:01:48.551Z,965.12
2022-11-30T00:02:19.548Z,965.32
2022-11-30T00:02:50.599Z,965.32
2022-11-30T00:03:21.520Z,965.12
2022-11-30T00:03:52.450Z,965.12
2022-11-30T00:04:23.452Z,965.22
2022-11-30T00:04:54.440Z,965.22
2022-11-30T00:05:26.442Z,965.12
2022-11-30T00:05:56.503Z,965.12
2022-11-30T00:06:27.451Z,965.02
2022-11-30T00:06:58.459Z,965.02
2022-11-30T00:07:29.484Z,965.12
2022-11-30T00:08:00.612Z,965.12
2022-11-30T00:08:31.426Z,965.12
2022-11-30T00:09:02.555Z,965.12
2022-11-30T00:09:33.438Z,965.12
2022-11-30T00:10:04.538Z,965.12
2022-11-30T00:10:36.446Z,965.12
2022-11-30T00:11:06.481Z,965.12
2022-11-30T00:11:37.428Z,965.12
2022-11-30T00:12:08.473Z,965.12
2022-11-30T00:12:39.439Z,965.12
2022-11-30T00:13:10.525Z,965.12
2022-11-30T00:13:41.431Z,965.12
2022-11-30T00:14:12.475Z,965.22
2022-11-30T00:14:43.591Z,965.22
2022-11-30T00:15:26.840Z,965.12
2022-11-30T00:15:46.459Z,965.12
2022-11-30T00:16:16.562Z,964.92
2022-11-30T00:16:47.538Z,964.92
2022-11-30T00:17:18.620Z,965.02
2022-11-30T00:17:49.443Z,965.02
2022-11-30T00:18:20.440Z,965.22
2022-11-30T00:18:51.442Z,965.22
2022-11-30T00:19:22.475Z,965.12
2022-11-30T00:19:53.424Z,965.12
2022-11-30T00:20:24.480Z,965.12
2022-11-30T00:20:56.445Z,965.12
2022-11-30T00:21:26.444Z,965.02
2022-11-30T00:21:57.483Z,965.02
2022-11-30T00:22:28.464Z,965.22
2022-11-30T00:22:59.443Z,965.22
2022-11-30T00:23:30.428Z,965.12
2022-11-30T00:24:01.436Z,965.12
2022-11-30T00:24:32.494Z,965.02
2022-11-30T00:25:03.478Z,965.32
2022-11-30T00:25:34.421Z,965.32
2022-11-30T00:26:06.517Z,965.12
2022-11-30T00:26:36.461Z,965.12
2022-11-30T00:27:07.499Z,965.22
2022-11-30T00:27:38.472Z,965.22
2022-11-30T00:28:09.504Z,965.32
2022-11-30T00:28:40.447Z,965.32
2022-11-30T00:29:11.423Z,965.32
2022-11-30T00:29:42.449Z,965.32
2022-11-30T00:30:25.789Z,965.22
2022-11-30T00:30:44.493Z,965.22
2022-11-30T00:31:16.538Z,965.22
2022-11-30T00:31:46.487Z,965.22
2022-11-30T00:32:17.444Z,965.22
2022-11-30T00:32:48.458Z,965.22
2022-11-30T00:33:19.435Z,965.22
2022-11-30T00:33:50.446Z,965.22
2022-11-30T00:34:21.436Z,965.22
2022-11-30T00:34:52.452Z,965.22
2022-11-30T00:35:23.441Z,965.32
2022-11-30T00:35:54.429Z,965.32
2022-11-30T00:36:26.435Z,965.22
2022-11-30T00:36:56.437Z,965.22
2022-11-30T00:37:27.430Z,965.22
2022-11-30T00:37:58.520Z,965.22
2022-11-30T00:38:29.434Z,965.42
2022-11-30T00:39:00.519Z,965.42
2022-11-30T00:39:35.419Z,965.22
2022-11-30T00:40:02.612Z,965.32
2022-11-30T00:40:33.426Z,965.32
2022-11-30T00:41:04.450Z,965.12
2022-11-30T00:41:36.436Z,965.12
2022-11-30T00:42:06.498Z,965.42
2022-11-30T00:42:37.443Z,965.42
2022-11-30T00:43:08.468Z,965.22
2022-11-30T00:43:39.431Z,965.22
2022-11-30T00:44:10.666Z,965.42
2022-11-30T00:44:41.446Z,965.42
2022-11-30T00:45:24.799Z,965.32
2022-11-30T00:45:43.552Z,965.32
2022-11-30T00:46:14.476Z,965.42
2022-11-30T00:46:46.428Z,965.42
2022-11-30T00:47:16.440Z,965.22
2022-11-30T00:47:47.442Z,965.22
2022-11-30T00:48:18.502Z,965.53
2022-11-30T00:48:49.415Z,965.53
2022-11-30T00:49:20.441Z,965.53
2022-11-30T00:49:51.491Z,965.53
2022-11-30T00:50:22.524Z,965.22
2022-11-30T00:50:53.476Z,965.22
2022-11-30T00:51:24.464Z,965.22
2022-11-30T00:51:56.470Z,965.22
2022-11-30T00:52:26.443Z,965.22
2022-11-30T00:52:57.487Z,965.22
2022-11-30T00:53:28.461Z,965.42
2022-11-30T00:53:59.438Z,965.42
2022-11-30T00:54:30.435Z,965.42
2022-11-30T00:55:04.033Z,965.42
2022-11-30T00:55:32.465Z,965.42
2022-11-30T00:56:03.506Z,965.32
2022-11-30T00:56:34.469Z,965.32
2022-11-30T00:57:06.445Z,965.42
2022-11-30T00:57:36.490Z,965.42
2022-11-30T00:58:07.488Z,965.42
2022-11-30T00:58:38.453Z,965.42
2022-11-30T00:59:09.431Z,965.53
2022-11-30T00:59:40.522Z,965.53
2022-11-30T01:00:23.769Z,965.32
2022-11-30T01:00:42.435Z,965.32
2022-11-30T01:01:13.577Z,965.53
2022-11-30T01:01:44.459Z,965.53
2022-11-30T01:02:16.470Z,965.42
2022-11-30T01:02:46.470Z,965.42
2022-11-30T01:03:17.448Z,965.22
2022-11-30T01:03:48.449Z,965.22
2022-11-30T01:04:19.434Z,965.22
2022-11-30T01:04:50.447Z,965.22
2022-11-30T01:05:21.428Z,965.22
2022-11-30T01:05:52.493Z,965.22
2022-11-30T01:06:23.470Z,965.53
2022-11-30T01:06:54.477Z,965.53
2022-11-30T01:07:26.484Z,965.32
2022-11-30T01:07:56.770Z,965.32
2022-11-30T01:08:27.421Z,965.42
2022-11-30T01:08:58.493Z,965.42
2022-11-30T01:09:29.480Z,965.53
2022-11-30T01:10:00.478Z,965.53
2022-11-30T01:10:31.487Z,965.22
2022-11-30T01:11:02.533Z,965.22
2022-11-30T01:11:33.479Z,965.22
2022-11-30T01:12:04.457Z,965.22
2022-11-30T01:12:36.442Z,965.22
2022-11-30T01:13:06.567Z,965.22
2022-11-30T01:13:37.581Z,965.22
2022-11-30T01:14:08.719Z,965.22
2022-11-30T01:14:39.433Z,965.22
2022-11-30T01:15:22.839Z,965.22
2022-11-30T01:15:41.537Z,965.22
2022-11-30T01:16:12.529Z,965.22
2022-11-30T01:16:43.502Z,965.22
2022-11-30T01:17:14.448Z,965.32
2022-11-30T01:17:46.423Z,965.32
2022-11-30T01:18:16.471Z,965.63
2022-11-30T01:18:47.450Z,965.63
2022-11-30T01:19:18.589Z,965.32
2022-11-30T01:19:49.421Z,965.32
2022-11-30T01:20:20.462Z,965.53
2022-11-30T01:20:51.432Z,965.53
2022-11-30T01:21:22.463Z,965.42
2022-11-30T01:21:53.435Z,965.42
2022-11-30T01:22:24.449Z,965.42
2022-11-30T01:22:56.465Z,965.42
2022-11-30T01:23:26.428Z,965.53
2022-11-30T01:23:57.458Z,965.53
2022-11-30T01:24:28.506Z,965.32
2022-11-30T01:24:59.421Z,965.32
2022-11-30T01:25:30.416Z,965.42
2022-11-30T01:26:01.461Z,965.42
2022-11-30T01:26:32.472Z,965.42
2022-11-30T01:27:03.432Z,965.63
2022-11-30T01:27:34.451Z,965.63
2022-11-30T01:28:06.523Z,965.63
2022-11-30T01:28:36.487Z,965.63
2022-11-30T01:29:07.564Z,965.63
2022-11-30T01:29:38.446Z,965.63
2022-11-30T01:30:21.948Z,965.22
2022-11-30T01:30:40.531Z,965.22
2022-11-30T01:31:11.606Z,965.53
2022-11-30T01:31:42.448Z,965.53
2022-11-30T01:32:13.911Z,965.32
2022-11-30T01:32:44.425Z,965.32
2022-11-30T01:33:16.457Z,965.53
2022-11-30T01:33:46.504Z,965.53
2022-11-30T01:34:17.419Z,965.53
2022-11-30T01:34:48.670Z,965.53
2022-11-30T01:35:19.473Z,965.42
2022-11-30T01:35:50.431Z,965.42
2022-11-30T01:36:21.433Z,965.32
2022-11-30T01:36:52.485Z,965.32
2022-11-30T01:37:23.415Z,965.53
2022-11-30T01:37:54.432Z,965.53
2022-11-30T01:38:26.426Z,965.53
2022-11-30T01:38:56.440Z,965.53
2022-11-30T01:39:27.482Z,965.53
2022-11-30T01:39:58.443Z,965.53
2022-11-30T01:40:29.430Z,965.63
2022-11-30T01:41:00.436Z,965.63
2022-11-30T01:41:31.455Z,965.73
2022-11-30T01:42:02.523Z,965.63
2022-11-30T01:42:33.488Z,965.63
2022-11-30T01:43:04.407Z,965.63
2022-11-30T01:43:36.409Z,965.63
2022-11-30T01:44:06.471Z,965.53
2022-11-30T01:44:37.472Z,965.53
2022-11-30T01:45:20.807Z,965.42
2022-11-30T01:45:39.421Z,965.42
2022-11-30T01:46:10.448Z,965.63
2022-11-30T01:46:41.441Z,965.63
2022-11-30T01:47:12.425Z,965.53
2022-11-30T01:47:43.435Z,965.53
2022-11-30T01:48:14.413Z,965.42
2022-11-30T01:48:46.454Z,965.42
2022-11-30T01:49:16.442Z,965.53
2022-11-30T01:49:47.413Z,965.53
2022-11-30T01:50:18.479Z,965.63
2022-11-30T01:50:49.460Z,965.63
2022-11-30T01:51:20.422Z,965.53
2022-11-30T01:51:51.404Z,965.53
2022-11-30T01:52:22.489Z,965.63
2022-11-30T01:52:53.415Z,965.63
2022-11-30T01:53:24.438Z,965.42
2022-11-30T01:53:56.435Z,965.42
2022-11-30T01:54:26.433Z,965.53
2022-11-30T01:54:57.462Z,965.53
2022-11-30T01:55:28.419Z,965.42
2022-11-30T01:55:59.627Z,965.42
2022-11-30T01:56:30.456Z,965.63
2022-11-30T01:57:01.417Z,965.63
2022-11-30T01:57:32.411Z,965.42
2022-11-30T01:58:03.461Z,965.63
2022-11-30T01:58:34.428Z,965.63
2022-11-30T01:59:06.470Z,965.63
2022-11-30T01:59:36.401Z,965.63
2022-11-30T02:00:19.903Z,965.32
2022-11-30T02:00:38.453Z,965.32
2022-11-30T02:01:09.742Z,965.53
2022-11-30T02:01:41.406Z,965.53
2022-11-30T02:02:12.741Z,965.53
2022-11-30T02:02:42.497Z,965.53
2022-11-30T02:03:13.567Z,965.73
2022-11-30T02:03:44.892Z,965.73
2022-11-30T02:04:18.164Z,965.53
2022-11-30T02:04:47.194Z,965.53
2022-11-30T02:05:17.870Z,965.63
2022-11-30T02:05:48.530Z,965.63
2022-11-30T02:06:19.542Z,965.63
2022-11-30T02:06:50.475Z,965.63
2022-11-30T02:07:21.751Z,965.63
2022-11-30T02:07:52.635Z,965.63
2022-11-30T02:08:23.609Z,965.73
2022-11-30T02:08:54.425Z,965.73
2022-11-30T02:09:26.429Z,965.42
2022-11-30T02:09:56.422Z,965.42
2022-11-30T02:10:27.434Z,965.73
2022-11-30T02:10:58.466Z,965.73
2022-11-30T02:11:29.447Z,965.63
2022-11-30T02:12:00.465Z,965.63
2022-11-30T02:12:31.443Z,965.73
2022-11-30T02:13:02.588Z,965.53
2022-11-30T02:13:33.459Z,965.53
2022-11-30T02:14:04.522Z,965.53
2022-11-30T02:14:36.566Z,965.53
2022-11-30T02:15:18.881Z,965.53
2022-11-30T02:15:37.550Z,965.53
2022-11-30T02:16:08.523Z,965.53
2022-11-30T02:16:39.645Z,965.53
2022-11-30T02:17:10.728Z,965.53
2022-11-30T02:17:41.422Z,965.53
2022-11-30T02:18:12.429Z,965.53
2022-11-30T02:18:43.431Z,965.53
2022-11-30T02:19:14.557Z,965.63
2022-11-30T02:19:46.513Z,965.63
2022-11-30T02:20:16.678Z,965.53
2022-11-30T02:20:47.492Z,965.53
2022-11-30T02:21:18.557Z,965.63
2022-11-30T02:21:49.664Z,965.63
2022-11-30T02:22:20.451Z,965.83
2022-11-30T02:22:51.398Z,965.83
2022-11-30T02:23:22.473Z,965.63
2022-11-30T02:23:53.448Z,965.63
2022-11-30T02:24:24.474Z,965.63
2022-11-30T02:24:56.413Z,965.63
2022-11-30T02:25:26.453Z,965.63
2022-11-30T02:25:57.422Z,965.63
2022-11-30T02:26:28.431Z,965.63
2022-11-30T02:26:59.427Z,965.63
2022-11-30T02:27:30.423Z,965.53
2022-11-30T02:28:01.415Z,965.53
2022-11-30T02:28:32.419Z,965.73
2022-11-30T02:29:03.440Z,965.63
2022-11-30T02:29:34.452Z,965.63
2022-11-30T02:30:18.922Z,965.63
2022-11-30T02:30:36.416Z,965.63
2022-11-30T02:31:07.683Z,965.83
2022-11-30T02:31:38.527Z,965.83
2022-11-30T02:32:09.456Z,965.73
2022-11-30T02:32:40.438Z,965.73
2022-11-30T02:33:11.457Z,965.42
2022-11-30T02:33:42.456Z,965.42
2022-11-30T02:34:13.458Z,965.63
2022-11-30T02:34:45.550Z,965.63
2022-11-30T02:35:17.693Z,965.73
2022-11-30T02:35:50.358Z,965.73
2022-11-30T02:36:17.416Z,965.63
2022-11-30T02:36:48.408Z,965.63
2022-11-30T02:37:19.527Z,965.83
2022-11-30T02:37:50.463Z,965.83
2022-11-30T02:38:21.400Z,965.63
2022-11-30T02:38:52.475Z,965.63
2022-11-30T02:39:23.380Z,965.63
2022-11-30T02:39:54.426Z,965.63
2022-11-30T02:40:26.388Z,965.42
2022-11-30T02:40:56.481Z,965.42
2022-11-30T02:41:27.440Z,965.53
2022-11-30T02:41:58.414Z,965.53
2022-11-30T02:42:29.407Z,965.93
2022-11-30T02:43:00.425Z,965.93
2022-11-30T02:43:31.453Z,965.53
2022-11-30T02:44:02.613Z,965.83
2022-11-30T02:44:33.406Z,965.83
2022-11-30T02:45:16.759Z,965.83
2022-11-30T02:45:36.498Z,965.83
2022-11-30T02:46:06.484Z,965.73
2022-11-30T02:46:37.486Z,965.73
2022-11-30T02:47:08.382Z,965.93
2022-11-30T02:47:39.436Z,965.93
2022-11-30T02:48:10.403Z,965.63
2022-11-30T02:48:41.404Z,965.63
2022-11-30T02:49:12.396Z,965.63
2022-11-30T02:49:43.394Z,965.63
2022-11-30T02:50:14.401Z,965.73
2022-11-30T02:50:46.418Z,965.73
2022-11-30T02:51:16.491Z,965.73
2022-11-30T02:51:47.397Z,965.73
2022-11-30T02:52:18.457Z,965.83
2022-11-30T02:52:49.392Z,965.83
2022-11-30T02:53:20.412Z,965.73
2022-11-30T02:53:51.429Z,965.73
2022-11-30T02:54:22.402Z,965.93
2022-11-30T02:54:53.384Z,965.93
2022-11-30T02:55:24.407Z,965.73
2022-11-30T02:55:56.449Z,965.73
2022-11-30T02:56:26.406Z,965.93
2022-11-30T02:56:57.395Z,965.93
2022-11-30T02:57:28.417Z,965.63
2022-11-30T02:57:59.413Z,965.63
2022-11-30T02:58:30.380Z,965.73
2022-11-30T02:59:01.451Z,965.73
2022-11-30T02:59:32.490Z,965.83
2022-11-30T03:00:15.800Z,965.73
2022-11-30T03:00:34.382Z,965.73
2022-11-30T03:01:06.523Z,965.83
2022-11-30T03:01:36.469Z,965.83
2022-11-30T03:02:07.425Z,965.73
2022-11-30T03:02:38.398Z,965.73
2022-11-30T03:03:09.432Z,965.83
2022-11-30T03:03:40.446Z,965.83
2022-11-30T03:04:11.378Z,965.73
2022-11-30T03:04:42.390Z,965.73
2022-11-30T03:05:13.411Z,965.42
2022-11-30T03:05:44.416Z,965.42
2022-11-30T03:06:16.388Z,965.93
2022-11-30T03:06:46.464Z,965.93
2022-11-30T03:07:17.432Z,965.63
2022-11-30T03:07:48.460Z,965.63
2022-11-30T03:08:19.407Z,965.73
2022-11-30T03:08:50.403Z,965.73
2022-11-30T03:09:21.438Z,965.63
2022-11-30T03:09:52.401Z,965.63
2022-11-30T03:10:23.383Z,965.83
2022-11-30T03:10:54.477Z,965.83
2022-11-30T03:11:26.413Z,965.73
2022-11-30T03:11:56.404Z,965.73
2022-11-30T03:12:27.422Z,965.53
2022-11-30T03:12:58.416Z,965.53
2022-11-30T03:13:29.407Z,965.73
2022-11-30T03:14:00.424Z,965.73
2022-11-30T03:14:31.394Z,965.73
2022-11-30T03:15:15.096Z,965.42
2022-11-30T03:15:33.491Z,965.42
2022-11-30T03:16:04.458Z,965.73
2022-11-30T03:16:36.400Z,965.73
2022-11-30T03:17:06.384Z,965.42
2022-11-30T03:17:37.411Z,965.42
2022-11-30T03:18:08.402Z,965.63
2022-11-30T03:18:39.461Z,965.63
2022-11-30T03:19:10.398Z,965.63
2022-11-30T03:19:41.396Z,965.63
2022-11-30T03:20:12.428Z,965.63
2022-11-30T03:20:43.464Z,965.63
2022-11-30T03:21:14.446Z,965.53
2022-11-30T03:21:46.395Z,965.53
2022-11-30T03:22:16.388Z,965.53
2022-11-30T03:22:47.432Z,965.53
2022-11-30T03:23:18.383Z,965.42
2022-11-30T03:23:49.409Z,965.42
2022-11-30T03:24:20.396Z,965.53
2022-11-30T03:24:51.381Z,965.53
2022-11-30T03:25:22.390Z,965.53
2022-11-30T03:25:53.378Z,965.53
2022-11-30T03:26:24.453Z,965.42
2022-11-30T03:26:57.282Z,965.42
2022-11-30T03:27:26.446Z,965.42
2022-11-30T03:27:57.405Z,965.42
2022-11-30T03:28:28.383Z,965.53
2022-11-30T03:28:59.415Z,965.53
2022-11-30T03:29:30.379Z,965.53
2022-11-30T03:30:13.783Z,965.53
2022-11-30T03:30:32.379Z,965.53
2022-11-30T03:31:03.739Z,965.73
2022-11-30T03:31:34.561Z,965.73
2022-11-30T03:32:06.398Z,965.73
2022-11-30T03:32:36.392Z,965.73
2022-11-30T03:33:07.401Z,965.42
2022-11-30T03:33:38.446Z,965.42
2022-11-30T03:34:09.462Z,965.73
2022-11-30T03:34:40.406Z,965.73
2022-11-30T03:35:13.822Z,965.63
2022-11-30T03:35:42.414Z,965.63
2022-11-30T03:36:16.538Z,965.73
2022-11-30T03:36:44.409Z,965.73
2022-11-30T03:37:16.542Z,965.73
2022-11-30T03:37:46.405Z,965.73
2022-11-30T03:38:17.432Z,965.73
2022-11-30T03:38:48.387Z,965.73
2022-11-30T03:39:19.436Z,965.63
2022-11-30T03:39:54.939Z,965.63
2022-11-30T03:40:21.368Z,965.63
2022-11-30T03:40:52.388Z,965.63
2022-11-30T03:41:23.387Z,965.63
2022-11-30T03:41:54.370Z,965.63
2022-11-30T03:42:26.599Z,965.53
2022-11-30T03:42:56.426Z,965.53
2022-11-30T03:43:27.396Z,965.73
2022-11-30T03:43:58.429Z,965.73
2022-11-30T03:44:29.384Z,965.73
2022-11-30T03:45:12.757Z,965.73
2022-11-30T03:45:31.377Z,965.63
2022-11-30T03:46:02.585Z,965.83
2022-11-30T03:46:33.453Z,965.83
2022-11-30T03:47:04.517Z,965.73
2022-11-30T03:47:36.455Z,965.73
2022-11-30T03:48:06.550Z,965.73
2022-11-30T03:48:37.476Z,965.73
2022-11-30T03:49:08.506Z,965.73
2022-11-30T03:49:39.491Z,965.73
2022-11-30T03:50:10.480Z,965.63
2022-11-30T03:50:41.511Z,965.63
2022-11-30T03:51:12.476Z,965.73
2022-11-30T03:51:43.475Z,965.73
2022-11-30T03:52:14.517Z,965.83
2022-11-30T03:52:46.481Z,965.83
2022-11-30T03:53:16.466Z,965.63
2022-11-30T03:53:47.475Z,965.63
2022-11-30T03:54:18.493Z,965.83
2022-11-30T03:54:49.632Z,965.83
2022-11-30T03:55:20.720Z,965.83
2022-11-30T03:55:51.460Z,965.83
2022-11-30T03:56:22.485Z,965.83
2022-11-30T03:56:53.469Z,965.83
2022-11-30T03:57:24.374Z,965.93
2022-11-30T03:57:56.389Z,965.93
2022-11-30T03:58:26.397Z,965.83
2022-11-30T03:58:57.399Z,965.83
2022-11-30T03:59:28.427Z,965.83
2022-11-30T03:59:59.387Z,965.83
2022-11-30T04:00:42.721Z,965.83
2022-11-30T04:01:01.393Z,965.83
2022-11-30T04:01:32.440Z,965.93
2022-11-30T04:02:03.436Z,965.83
2022-11-30T04:02:34.586Z,965.83
2022-11-30T04:03:06.531Z,965.93
2022-11-30T04:03:36.370Z,965.93
2022-11-30T04:04:07.399Z,965.83
2022-11-30T04:04:38.388Z,965.83
2022-11-30T04:05:09.462Z,965.83
2022-11-30T04:05:40.382Z,965.83
2022-11-30T04:06:11.406Z,965.73
2022-11-30T04:06:42.426Z,965.73
2022-11-30T04:07:13.596Z,966.03
2022-11-30T04:07:44.462Z,966.03
2022-11-30T04:08:16.380Z,965.83
2022-11-30T04:08:46.399Z,965.83
2022-11-30T04:09:17.375Z,965.73
2022-11-30T04:09:48.387Z,965.73
2022-11-30T04:10:19.389Z,965.93
2022-11-30T04:10:50.380Z,965.93
2022-11-30T04:11:21.432Z,965.93
2022-11-30T04:11:52.391Z,965.93
2022-11-30T04:12:23.457Z,965.73
2022-11-30T04:12:54.395Z,965.73
2022-11-30T04:13:26.364Z,965.93
2022-11-30T04:13:56.379Z,965.93
2022-11-30T04:14:27.390Z,965.93
2022-11-30T04:14:58.375Z,965.93
2022-11-30T04:15:41.760Z,965.83
2022-11-30T04:16:00.500Z,965.83
2022-11-30T04:16:31.421Z,965.63
2022-11-30T04:17:02.586Z,965.73
2022-11-30T04:17:33.361Z,965.73
2022-11-30T04:18:04.400Z,966.13
2022-11-30T04:18:36.432Z,966.13
2022-11-30T04:19:06.368Z,965.93
2022-11-30T04:19:37.381Z,965.93
2022-11-30T04:20:08.442Z,965.93
2022-11-30T04:20:40.555Z,965.93
2022-11-30T04:21:10.418Z,965.73
2022-11-30T04:21:41.380Z,965.73
2022-11-30T04:22:12.459Z,965.83
2022-11-30T04:22:43.379Z,965.83
2022-11-30T04:23:14.369Z,965.83
2022-11-30T04:23:46.463Z,965.83
2022-11-30T04:24:16.439Z,965.73
2022-11-30T04:24:47.732Z,965.73
2022-11-30T04:25:18.379Z,966.03
2022-11-30T04:25:49.354Z,966.03
2022-11-30T04:26:20.406Z,965.93
2022-11-30T04:26:51.369Z,965.93
2022-11-30T04:27:22.387Z,965.83
2022-11-30T04:27:53.357Z,965.83
2022-11-30T04:28:24.433Z,966.03
2022-11-30T04:28:56.407Z,966.03
2022-11-30T04:29:26.364Z,965.93
2022-11-30T04:29:57.427Z,965.93
2022-11-30T04:30:40.816Z,965.93
2022-11-30T04:30:59.713Z,965.93
2022-11-30T04:31:30.464Z,966.03
2022-11-30T04:32:01.400Z,966.03
2022-11-30T04:32:32.473Z,966.03
2022-11-30T04:33:03.402Z,965.93
2022-11-30T04:33:34.402Z,965.93
2022-11-30T04:34:06.414Z,966.13
2022-11-30T04:34:36.453Z,966.13
2022-11-30T04:35:12.525Z,965.83
2022-11-30T04:35:40.576Z,965.83
2022-11-30T04:36:09.433Z,965.73
2022-11-30T04:36:40.438Z,965.73
2022-11-30T04:37:11.575Z,965.93
2022-11-30T04:37:42.386Z,965.93
2022-11-30T04:38:13.450Z,965.93
2022-11-30T04:38:44.423Z,965.93
2022-11-30T04:39:16.376Z,965.83
2022-11-30T04:39:46.377Z,965.83
2022-11-30T04:40:17.363Z,965.93
2022-11-30T04:40:48.357Z,965.93
2022-11-30T04:41:19.356Z,966.13
2022-11-30T04:41:50.403Z,966.13
2022-11-30T04:42:21.364Z,966.03
2022-11-30T04:42:52.430Z,966.03
2022-11-30T04:43:23.379Z,966.03
2022-11-30T04:43:54.363Z,966.03
2022-11-30T04:44:26.368Z,966.03
2022-11-30T04:44:56.430Z,966.03
2022-11-30T04:45:39.729Z,965.73
2022-11-30T04:45:58.374Z,965.73
2022-11-30T04:46:29.390Z,965.83
2022-11-30T04:47:00.453Z,965.83
2022-11-30T04:47:31.369Z,966.13
2022-11-30T04:48:02.532Z,965.93
2022-11-30T04:48:33.352Z,965.93
2022-11-30T04:49:04.386Z,965.83
2022-11-30T04:49:36.368Z,965.83
2022-11-30T04:50:06.450Z,966.03
2022-11-30T04:50:37.382Z,966.03
2022-11-30T04:51:08.430Z,965.93
2022-11-30T04:51:39.384Z,965.93
2022-11-30T04:52:10.383Z,965.83
2022-11-30T04:52:41.360Z,965.83
2022-11-30T04:53:12.378Z,965.73
2022-11-30T04:53:43.402Z,965.73
2022-11-30T04:54:14.363Z,965.73
2022-11-30T04:54:46.765Z,965.73
2022-11-30T04:55:16.465Z,965.83
2022-11-30T04:55:47.400Z,965.83
2022-11-30T04:56:18.353Z,965.73
2022-11-30T04:56:49.350Z,965.73
2022-11-30T04:57:20.426Z,965.93
2022-11-30T04:57:51.363Z,965.93
2022-11-30T04:58:22.362Z,965.93
2022-11-30T04:58:53.389Z,965.93
2022-11-30T04:59:24.376Z,965.93
2022-11-30T04:59:56.398Z,965.93
2022-11-30T05:00:38.747Z,965.83
2022-11-30T05:00:57.391Z,965.83
2022-11-30T05:01:28.429Z,966.03
2022-11-30T05:01:59.443Z,966.03
2022-11-30T05:02:30.365Z,966.03
2022-11-30T05:03:01.349Z,966.03
2022-11-30T05:03:32.430Z,966.03
2022-11-30T05:04:03.502Z,965.93
2022-11-30T05:04:34.411Z,965.93
2022-11-30T05:05:06.400Z,965.73
2022-11-30T05:05:36.358Z,965.73
2022-11-30T05:06:07.380Z,965.83
2022-11-30T05:06:38.391Z,965.83
2022-11-30T05:07:09.375Z,966.03
2022-11-30T05:07:40.500Z,966.03
2022-11-30T05:08:11.406Z,965.83
2022-11-30T05:08:42.394Z,965.83
2022-11-30T05:09:13.354Z,965.83
2022-11-30T05:09:44.369Z,965.83
2022-11-30T05:10:16.354Z,965.93
2022-11-30T05:10:51.596Z,965.93
2022-11-30T05:11:17.372Z,966.03
2022-11-30T05:11:48.479Z,966.03
2022-11-30T05:12:19.359Z,966.13
2022-11-30T05:12:50.370Z,966.13
2022-11-30T05:13:21.405Z,965.83
2022-11-30T05:13:52.373Z,965.83
2022-11-30T05:14:23.357Z,965.83
2022-11-30T05:14:54.416Z,965.83
2022-11-30T05:15:38.717Z,966.03
2022-11-30T05:15:56.484Z,966.03
2022-11-30T05:16:27.450Z,965.73
2022-11-30T05:16:58.365Z,965.73
2022-11-30T05:17:29.408Z,966.03
2022-11-30T05:18:00.400Z,966.03
2022-11-30T05:18:31.364Z,965.93
2022-11-30T05:19:02.473Z,966.03
2022-11-30T05:19:33.482Z,966.03
2022-11-30T05:20:04.421Z,966.03
2022-11-30T05:20:36.360Z,966.03
2022-11-30T05:21:06.428Z,965.83
2022-11-30T05:21:40.143Z,965.83
2022-11-30T05:22:08.406Z,966.13
2022-11-30T05:22:39.357Z,966.13
2022-11-30T05:23:10.364Z,966.03
2022-11-30T05:23:41.349Z,966.03
2022-11-30T05:24:12.442Z,965.83
2022-11-30T05:24:43.351Z,965.83
2022-11-30T05:25:14.356Z,966.03
2022-11-30T05:25:46.382Z,966.03
2022-11-30T05:26:16.443Z,965.83
2022-11-30T05:26:47.353Z,965.83
2022-11-30T05:27:22.520Z,965.73
2022-11-30T05:27:49.354Z,965.73
2022-11-30T05:28:20.482Z,965.73
2022-11-30T05:28:51.342Z,965.73
2022-11-30T05:29:22.367Z,965.93
2022-11-30T05:29:53.403Z,965.93
2022-11-30T05:30:36.847Z,966.13
2022-11-30T05:30:57.660Z,966.13
2022-11-30T05:31:26.570Z,965.93
2022-11-30T05:31:57.418Z,965.93
2022-11-30T05:32:28.438Z,965.83
2022-11-30T05:32:59.417Z,965.83
2022-11-30T05:33:30.396Z,965.83
2022-11-30T05:34:01.425Z,965.83
2022-11-30T05:34:41.301Z,965.93
2022-11-30T05:35:03.416Z,966.03
2022-11-30T05:35:38.299Z,966.03
2022-11-30T05:36:10.722Z,966.03
2022-11-30T05:36:36.668Z,966.03
2022-11-30T05:37:07.410Z,965.93
2022-11-30T05:37:38.381Z,965.93
2022-11-30T05:38:09.426Z,965.83
2022-11-30T05:38:40.372Z,965.83
2022-11-30T05:39:11.388Z,966.03
2022-11-30T05:39:42.365Z,966.03
2022-11-30T05:40:13.356Z,966.03
2022-11-30T05:40:44.375Z,966.03
2022-11-30T05:41:16.344Z,965.83
2022-11-30T05:41:46.420Z,965.83
2022-11-30T05:42:17.345Z,966.13
2022-11-30T05:42:48.394Z,966.13
2022-11-30T05:43:19.522Z,966.03
2022-11-30T05:43:50.385Z,966.03
2022-11-30T05:44:21.325Z,966.03
2022-11-30T05:44:52.354Z,966.03
2022-11-30T05:45:35.702Z,965.93
2022-11-30T05:45:54.408Z,965.93
2022-11-30T05:46:26.391Z,966.13
2022-11-30T05:46:56.557Z,966.13
2022-11-30T05:47:27.361Z,966.13
2022-11-30T05:47:58.341Z,966.13
2022-11-30T05:48:29.334Z,965.93
2022-11-30T05:49:00.453Z,965.93
2022-11-30T05:49:31.341Z,966.03
2022-11-30T05:50:02.536Z,966.13
2022-11-30T05:50:33.363Z,966.13
2022-11-30T05:51:04.404Z,966.03
2022-11-30T05:51:36.331Z,966.03
2022-11-30T05:52:06.357Z,966.13
2022-11-30T05:52:37.350Z,966.13
2022-11-30T05:53:08.418Z,966.03
2022-11-30T05:53:39.341Z,966.03
2022-11-30T05:54:10.370Z,966.13
2022-11-30T05:54:41.396Z,966.13
2022-11-30T05:55:12.377Z,966.13
2022-11-30T05:55:43.327Z,966.13
2022-11-30T05:56:14.327Z,965.93
2022-11-30T05:56:50.286Z,965.93
2022-11-30T05:57:16.401Z,965.83
2022-11-30T05:57:47.349Z,965.83
2022-11-30T05:58:18.360Z,965.93
2022-11-30T05:58:49.384Z,965.93
2022-11-30T05:59:20.362Z,966.03
2022-11-30T05:59:51.331Z,966.03
2022-11-30T06:00:34.678Z,966.13
2022-11-30T06:00:53.396Z,966.13
2022-11-30T06:01:24.358Z,966.03
2022-11-30T06:01:56.493Z,966.03
2022-11-30T06:02:28.251Z,966.13
2022-11-30T06:02:57.534Z,966.13
2022-11-30T06:03:28.398Z,966.13
2022-11-30T06:03:59.353Z,966.13
2022-11-30T06:04:30.397Z,966.03
2022-11-30T06:05:01.363Z,966.03
2022-11-30T06:05:32.365Z,966.03
2022-11-30T06:06:03.374Z,966.24
2022-11-30T06:06:34.367Z,966.24
2022-11-30T06:07:06.394Z,966.03
2022-11-30T06:07:36.394Z,966.03
2022-11-30T06:08:07.375Z,966.03
2022-11-30T06:08:38.397Z,966.03
2022-11-30T06:09:09.367Z,966.13
2022-11-30T06:09:40.365Z,966.13
2022-11-30T06:10:11.333Z,965.93
2022-11-30T06:10:42.408Z,965.93
2022-11-30T06:11:13.333Z,966.13
2022-11-30T06:11:44.321Z,966.13
2022-11-30T06:12:16.448Z,966.13
2022-11-30T06:12:46.350Z,966.13
2022-11-30T06:13:17.387Z,966.13
2022-11-30T06:13:48.327Z,966.13
2022-11-30T06:14:19.328Z,965.93
2022-11-30T06:14:50.372Z,965.93
2022-11-30T06:15:33.649Z,966.03
2022-11-30T06:15:52.359Z,966.03
2022-11-30T06:16:23.367Z,966.24
2022-11-30T06:16:54.367Z,966.24
2022-11-30T06:17:26.340Z,965.93
2022-11-30T06:17:56.358Z,965.93
2022-11-30T06:18:27.410Z,966.03
2022-11-30T06:18:58.392Z,966.03
2022-11-30T06:19:29.330Z,966.03
2022-11-30T06:20:00.382Z,966.03
2022-11-30T06:20:31.356Z,966.24
2022-11-30T06:21:02.526Z,966.13
2022-11-30T06:21:33.333Z,966.13
2022-11-30T06:22:04.340Z,966.34
2022-11-30T06:22:36.337Z,966.34
2022-11-30T06:23:06.403Z,966.13
2022-11-30T06:23:37.456Z,966.13
2022-11-30T06:24:08.343Z,966.13
2022-11-30T06:24:39.342Z,966.13
2022-11-30T06:25:10.345Z,966.03
2022-11-30T06:25:41.388Z,966.03
2022-11-30T06:26:12.343Z,966.24
2022-11-30T06:26:43.338Z,966.24